Time;durP1;ratioP1;P1;durP2;ratioP2;P2;SDS_P1;SDS_P2;PMS_P1;PMS_P2;Temp;Humidity;BMP_temperature;BMP_pressure;BME280_temperature;BME280_humidity;BME280_pressure;Samples;Min_cycle;Max_cycle;Signal;HPM_P1;HPM_P2
2022/08/09 00:01:47;;;;;;;10.18;9.18;;;;;;;;;;5074225;28;20043;-57
2022/08/09 00:04:16;;;;;;;14.73;9.93;;;;;;;;;;5074127;28;20025;-57
2022/08/09 00:06:43;;;;;;;15.13;10.30;;;;;;;;;;5074412;28;20366;-57
2022/08/09 00:09:09;;;;;;;12.85;10.30;;;;;;;;;;5074093;28;20028;-56
2022/08/09 00:11:35;;;;;;;12.45;10.18;;;;;;;;;;5056288;28;20036;-56
2022/08/09 00:14:02;;;;;;;12.02;9.27;;;;;;;;;;5056161;28;20482;-54
2022/08/09 00:16:28;;;;;;;11.60;10.35;;;;;;;;;;5074159;28;20032;-54
2022/08/09 00:18:54;;;;;;;12.95;10.13;;;;;;;;;;5073623;28;20089;-56
2022/08/09 00:21:21;;;;;;;12.43;10.27;;;;;;;;;;5073679;28;20036;-55
2022/08/09 00:23:47;;;;;;;15.43;10.30;;;;;;;;;;5073706;28;20112;-57
2022/08/09 00:26:13;;;;;;;12.38;11.02;;;;;;;;;;5073964;28;20033;-56
2022/08/09 00:28:39;;;;;;;14.45;11.68;;;;;;;;;;5073531;28;20078;-54
2022/08/09 00:31:05;;;;;;;14.68;11.27;;;;;;;;;;5054943;28;20083;-55
2022/08/09 00:33:31;;;;;;;12.35;11.07;;;;;;;;;;5073938;28;20028;-57
2022/08/09 00:35:59;;;;;;;12.93;10.32;;;;;;;;;;5073806;28;20078;-57
2022/08/09 00:38:25;;;;;;;14.65;11.73;;;;;;;;;;5073640;28;20032;-55
2022/08/09 00:40:52;;;;;;;12.60;11.07;;;;;;;;;;5073562;28;20039;-56
2022/08/09 00:43:18;;;;;;;;;;;;;;;;;;5073750;28;20091;-57
2022/08/09 00:45:44;;;;;;;12.52;11.05;;;;;;;;;;5055476;28;20366;-55
2022/08/09 00:48:10;;;;;;;11.85;10.73;;;;;;;;;;5073376;28;20046;-57
2022/08/09 00:50:37;;;;;;;16.50;12.57;;;;;;;;;;5073354;28;20027;-56
2022/08/09 00:53:03;;;;;;;22.02;11.95;;;;;;;;;;5073635;28;20086;-57
2022/08/09 00:55:29;;;;;;;13.27;11.98;;;;;;;;;;5073243;28;20028;-56
2022/08/09 00:57:55;;;;;;;13.02;11.68;;;;;;;;;;5073016;28;20028;-56
2022/08/09 01:00:22;;;;;;;13.63;12.23;;;;;;;;;;5073172;28;20024;-56
2022/08/09 01:02:49;;;;;;;14.98;12.57;;;;;;;;;;5073071;28;20032;-57
2022/08/09 01:05:19;;;;;;;13.13;11.77;;;;;;;;;;5073418;28;20020;-57
2022/08/09 01:08:08;;;;;;;14.23;12.73;;;;;;;;;;5073069;28;20062;-56
2022/08/09 01:10:34;;;;;;;14.95;12.55;;;;;;;;;;5059949;28;20041;-55
2022/08/09 01:13:15;;;;;;;14.63;12.68;;;;;;;;;;5072666;28;20112;-56
2022/08/09 01:15:44;;;;;;;13.18;11.77;;;;;;;;;;5072265;28;20427;-56
2022/08/09 01:18:12;;;;;;;13.75;12.32;;;;;;;;;;5073097;28;20036;-55
2022/08/09 01:20:50;;;;;;;20.35;11.70;;;;;;;;;;5072668;28;20110;-56
2022/08/09 01:23:21;;;;;;;13.02;11.10;;;;;;;;;;5073013;28;20083;-56
2022/08/09 01:26:06;;;;;;;13.23;11.00;;;;;;;;;;5072924;28;20441;-55
2022/08/09 01:28:33;;;;;;;15.73;11.10;;;;;;;;;;5061830;28;20387;-55
2022/08/09 01:31:00;;;;;;;15.82;11.20;;;;;;;;;;5072446;28;20437;-57
2022/08/09 01:33:28;;;;;;;11.85;10.60;;;;;;;;;;5072457;28;20028;-54
2022/08/09 01:36:06;;;;;;;12.73;10.63;;;;;;;;;;5072692;28;20032;-57
2022/08/09 01:38:35;;;;;;;12.43;10.77;;;;;;;;;;5072596;28;20104;-57
2022/08/09 01:41:04;;;;;;;12.75;9.80;;;;;;;;;;5071767;28;20098;-56
2022/08/09 01:43:32;;;;;;;12.55;9.65;;;;;;;;;;5071621;28;20044;-57
2022/08/09 01:45:58;;;;;;;13.30;9.50;;;;;;;;;;5072908;28;20028;-57
2022/08/09 01:48:26;;;;;;;11.20;10.00;;;;;;;;;;5072162;28;20024;-57
2022/08/09 01:50:52;;;;;;;11.98;10.30;;;;;;;;;;5056785;28;20407;-57
2022/08/09 01:53:21;;;;;;;15.50;10.25;;;;;;;;;;5072232;28;20529;-56
2022/08/09 01:55:49;;;;;;;11.20;10.18;;;;;;;;;;5072270;28;20028;-55
2022/08/09 01:58:15;;;;;;;15.40;9.98;;;;;;;;;;5071774;28;20021;-57
2022/08/09 02:00:43;;;;;;;13.82;10.13;;;;;;;;;;5071822;28;20082;-57
2022/08/09 02:03:09;;;;;;;13.90;10.40;;;;;;;;;;5072116;28;20030;-56
2022/08/09 02:05:36;;;;;;;13.40;10.90;;;;;;;;;;5072230;28;20036;-57
2022/08/09 02:08:03;;;;;;;12.48;10.27;;;;;;;;;;5072051;28;20032;-54
2022/08/09 02:10:31;;;;;;;12.52;9.98;;;;;;;;;;5053695;28;20028;-55
2022/08/09 02:13:00;;;;;;;14.50;10.07;;;;;;;;;;5071544;28;20032;-57
2022/08/09 02:15:26;;;;;;;12.95;9.63;;;;;;;;;;5071699;28;20382;-55
2022/08/09 02:17:53;;;;;;;15.93;10.23;;;;;;;;;;5071689;28;20043;-55
2022/08/09 02:20:19;;;;;;;12.20;10.00;;;;;;;;;;5071512;28;20032;-57
2022/08/09 02:22:52;;;;;;;13.10;10.02;;;;;;;;;;5071785;28;20032;-56
2022/08/09 02:25:20;;;;;;;10.48;9.40;;;;;;;;;;5071761;28;20031;-54
2022/08/09 02:27:48;;;;;;;11.13;9.70;;;;;;;;;;5053686;28;20024;-55
2022/08/09 02:30:14;;;;;;;10.95;9.82;;;;;;;;;;5071106;28;20070;-55
2022/08/09 02:32:42;;;;;;;13.95;9.98;;;;;;;;;;5071629;28;20025;-57
2022/08/09 02:35:13;;;;;;;13.48;10.63;;;;;;;;;;5071084;28;20408;-57
2022/08/09 02:37:41;;;;;;;14.30;10.85;;;;;;;;;;5053891;28;20031;-56
2022/08/09 02:40:10;;;;;;;11.85;10.55;;;;;;;;;;5071425;28;20082;-57
2022/08/09 02:42:37;;;;;;;12.82;10.23;;;;;;;;;;5071325;28;20487;-57
2022/08/09 02:45:05;;;;;;;15.95;9.80;;;;;;;;;;5071340;28;20035;-56
2022/08/09 02:47:32;;;;;;;12.40;10.10;;;;;;;;;;5071432;28;20055;-57
2022/08/09 02:50:02;;;;;;;18.27;10.27;;;;;;;;;;5071177;28;20376;-55
2022/08/09 02:52:33;;;;;;;12.38;9.30;;;;;;;;;;5070800;28;20035;-57
2022/08/09 02:55:00;;;;;;;12.23;9.70;;;;;;;;;;5071008;28;20076;-55
2022/08/09 02:57:27;;;;;;;11.38;9.25;;;;;;;;;;5071292;28;20043;-57
2022/08/09 02:59:53;;;;;;;;;;;;;;;;;;5070671;28;20039;-56
2022/08/09 03:02:19;;;;;;;11.25;9.43;;;;;;;;;;5069899;28;19912;-57
2022/08/09 03:04:46;;;;;;;13.57;10.38;;;;;;;;;;5070868;28;20029;-55
2022/08/09 03:07:13;;;;;;;13.57;9.75;;;;;;;;;;5070553;28;20348;-55
2022/08/09 03:09:40;;;;;;;9.23;8.30;;;;;;;;;;5053426;28;20364;-55
2022/08/09 03:12:06;;;;;;;9.68;8.20;;;;;;;;;;5070951;28;20060;-54
2022/08/09 03:14:33;;;;;;;10.73;9.60;;;;;;;;;;5059642;28;20051;-57
2022/08/09 03:16:59;;;;;;;;;;;;;;;;;;5071741;28;20032;-55
2022/08/09 03:19:26;;;;;;;15.65;9.55;;;;;;;;;;5071116;28;19909;-54
2022/08/09 03:21:53;;;;;;;12.30;10.55;;;;;;;;;;5070650;28;20031;-56
2022/08/09 03:24:19;;;;;;;13.32;11.63;;;;;;;;;;5062537;28;20036;-54
2022/08/09 03:26:45;;;;;;;;;;;;;;;;;;5052068;28;20369;-55
2022/08/09 03:29:12;;;;;;;13.30;11.82;;;;;;;;;;5051124;28;20015;-56
2022/08/09 03:31:39;;;;;;;19.85;10.77;;;;;;;;;;5067280;28;20077;-55
2022/08/09 03:34:05;;;;;;;;;;;;;;;;;;5071544;28;20028;-57
2022/08/09 03:36:31;;;;;;;14.20;10.63;;;;;;;;;;5070428;28;19908;-57
2022/08/09 03:38:57;;;;;;;13.15;10.68;;;;;;;;;;5071393;28;20035;-54
2022/08/09 03:41:24;;;;;;;14.10;9.73;;;;;;;;;;5071042;28;20029;-54
2022/08/09 03:43:50;;;;;;;14.32;9.75;;;;;;;;;;5070741;28;20551;-54
2022/08/09 03:46:16;;;;;;;12.60;7.85;;;;;;;;;;5070996;28;20021;-57
2022/08/09 03:48:44;;;;;;;10.85;7.07;;;;;;;;;;5070967;28;20380;-55
2022/08/09 03:51:11;;;;;;;10.05;6.28;;;;;;;;;;5053410;28;20047;-54
2022/08/09 03:53:36;;;;;;;;;;;;;;;;;;5071358;28;20071;-55
2022/08/09 03:56:04;;;;;;;7.95;5.07;;;;;;;;;;5071021;28;20563;-56
2022/08/09 03:58:30;;;;;;;6.00;5.35;;;;;;;;;;5070903;28;20024;-56
2022/08/09 04:00:57;;;;;;;8.10;4.80;;;;;;;;;;5066601;28;20025;-54
2022/08/09 04:03:25;;;;;;;6.80;4.45;;;;;;;;;;5061274;28;20059;-55
2022/08/09 04:05:51;;;;;;;7.97;4.43;;;;;;;;;;5072932;28;20027;-55
2022/08/09 04:08:17;;;;;;;6.82;5.03;;;;;;;;;;5074373;28;20127;-56
2022/08/09 04:10:43;;;;;;;8.30;3.92;;;;;;;;;;5074346;28;20036;-57
2022/08/09 04:13:10;;;;;;;4.43;3.67;;;;;;;;;;5074302;28;20025;-55
2022/08/09 04:15:37;;;;;;;4.18;3.78;;;;;;;;;;5074496;28;20090;-57
2022/08/09 04:18:04;;;;;;;5.45;4.35;;;;;;;;;;5074268;28;20036;-55
2022/08/09 04:20:30;;;;;;;6.32;4.63;;;;;;;;;;5074366;28;20399;-54
2022/08/09 04:22:57;;;;;;;7.97;4.20;;;;;;;;;;5073967;28;20025;-54
2022/08/09 04:25:23;;;;;;;11.68;5.53;;;;;;;;;;5074365;28;20036;-54
2022/08/09 04:27:49;;;;;;;6.72;4.13;;;;;;;;;;5074355;28;20048;-54
2022/08/09 04:30:21;;;;;;;9.07;4.85;;;;;;;;;;5074273;28;20063;-55
2022/08/09 04:32:48;;;;;;;4.55;3.88;;;;;;;;;;5074135;28;20419;-55
2022/08/09 04:35:14;;;;;;;10.85;4.10;;;;;;;;;;5074195;28;20113;-55
2022/08/09 04:37:40;;;;;;;10.32;5.03;;;;;;;;;;5074138;28;20107;-56
2022/08/09 04:40:07;;;;;;;7.55;4.13;;;;;;;;;;5074005;28;20036;-57
2022/08/09 04:42:33;;;;;;;5.78;4.45;;;;;;;;;;5073956;28;20024;-56
2022/08/09 04:45:00;;;;;;;6.15;4.40;;;;;;;;;;5073983;28;20024;-54
2022/08/09 04:47:27;;;;;;;13.68;4.80;;;;;;;;;;5073905;28;20463;-56
2022/08/09 04:49:54;;;;;;;6.90;4.20;;;;;;;;;;5073910;28;20482;-54
2022/08/09 04:52:20;;;;;;;6.97;4.03;;;;;;;;;;5073828;28;20023;-54
2022/08/09 04:54:47;;;;;;;;;;;;;;;;;;5074079;28;20422;-54
2022/08/09 04:57:13;;;;;;;8.57;4.22;;;;;;;;;;5073729;28;19905;-54
2022/08/09 04:59:39;;;;;;;10.15;4.03;;;;;;;;;;5073627;28;20029;-53
2022/08/09 05:02:05;;;;;;;4.83;3.97;;;;;;;;;;5073667;28;20032;-53
2022/08/09 05:04:31;;;;;;;8.85;3.67;;;;;;;;;;5055909;28;20693;-53
2022/08/09 05:06:57;;;;;;;4.97;3.38;;;;;;;;;;5073053;28;20031;-55
2022/08/09 05:09:27;;;;;;;11.85;3.72;;;;;;;;;;5096638;22;20043;-61
2022/08/09 05:11:53;;;;;;;9.00;3.92;;;;;;;;;;5070752;28;20104;-61
2022/08/09 05:14:19;;;;;;;10.10;5.20;;;;;;;;;;5055403;28;20070;-61
2022/08/09 05:16:46;;;;;;;;;;;;;;;;;;5073667;28;20262;-58
2022/08/09 05:19:13;;;;;;;5.82;4.07;;;;;;;;;;5073122;28;20449;-59
2022/08/09 05:21:40;;;;;;;7.18;4.20;;;;;;;;;;5073085;28;20037;-57
2022/08/09 05:24:06;;;;;;;7.38;4.20;;;;;;;;;;5073117;28;20074;-64
2022/08/09 05:26:32;;;;;;;9.68;4.40;;;;;;;;;;5073193;28;20058;-61
2022/08/09 05:28:58;;;;;;;7.55;4.50;;;;;;;;;;5072734;28;20580;-61
2022/08/09 05:31:24;;;;;;;6.32;4.55;;;;;;;;;;5073059;28;20032;-61
2022/08/09 05:33:50;;;;;;;9.32;4.30;;;;;;;;;;5072504;28;20033;-64
2022/08/09 05:36:16;;;;;;;12.27;4.75;;;;;;;;;;5072787;28;20029;-64
2022/08/09 05:38:42;;;;;;;5.93;4.90;;;;;;;;;;5072613;28;20031;-61
2022/08/09 05:41:08;;;;;;;12.83;3.80;;;;;;;;;;5072843;28;20028;-61
2022/08/09 05:43:34;;;;;;;8.73;3.97;;;;;;;;;;5072661;28;20349;-63
2022/08/09 05:46:01;;;;;;;9.25;3.55;;;;;;;;;;5072755;28;20028;-63
2022/08/09 05:48:27;;;;;;;;;;;;;;;;;;5073023;28;20023;-63
2022/08/09 05:50:53;;;;;;;5.75;3.72;;;;;;;;;;5072840;28;20389;-63
2022/08/09 05:53:19;;;;;;;17.17;4.37;;;;;;;;;;5072673;28;20020;-63
2022/08/09 05:55:45;;;;;;;7.33;3.50;;;;;;;;;;5071915;28;20277;-63
2022/08/09 05:58:11;;;;;;;6.90;4.30;;;;;;;;;;5054691;28;20447;-62
2022/08/09 06:00:37;;;;;;;5.93;3.85;;;;;;;;;;5072553;28;20031;-62
2022/08/09 06:03:04;;;;;;;6.80;5.20;;;;;;;;;;5054347;28;20112;-62
2022/08/09 06:05:32;;;;;;;10.07;4.22;;;;;;;;;;5072468;28;20391;-62
2022/08/09 06:07:58;;;;;;;16.95;5.30;;;;;;;;;;5054286;28;20021;-62
2022/08/09 06:10:36;;;;;;;16.95;5.00;;;;;;;;;;5071917;28;20054;-61
2022/08/09 06:13:11;;;;;;;9.30;4.05;;;;;;;;;;5072222;28;20037;-61
2022/08/09 06:15:37;;;;;;;9.57;4.82;;;;;;;;;;5072184;28;20111;-62
2022/08/09 06:18:03;;;;;;;10.27;5.18;;;;;;;;;;5072037;28;20025;-63
2022/08/09 06:20:30;;;;;;;10.93;5.35;;;;;;;;;;5072548;28;20028;-62
2022/08/09 06:22:56;;;;;;;8.63;4.55;;;;;;;;;;5071894;28;20085;-63
2022/08/09 06:25:23;;;;;;;8.93;5.05;;;;;;;;;;5072105;28;20486;-62
2022/08/09 06:27:49;;;;;;;9.10;4.05;;;;;;;;;;5053543;28;20025;-60
2022/08/09 06:30:15;;;;;;;10.47;4.63;;;;;;;;;;5071902;28;20029;-58
2022/08/09 06:32:41;;;;;;;7.30;3.85;;;;;;;;;;5072225;28;20254;-61
2022/08/09 06:35:08;;;;;;;4.25;3.58;;;;;;;;;;5071873;28;20095;-62
2022/08/09 06:37:34;;;;;;;4.20;3.20;;;;;;;;;;5071809;28;20036;-62
2022/08/09 06:40:00;;;;;;;5.63;3.78;;;;;;;;;;5071630;28;20530;-61
2022/08/09 06:42:26;;;;;;;9.20;4.18;;;;;;;;;;5071713;28;20115;-62
2022/08/09 06:44:52;;;;;;;5.68;3.42;;;;;;;;;;5071926;28;20048;-61
2022/08/09 06:47:18;;;;;;;9.75;4.30;;;;;;;;;;5071529;28;20043;-62
2022/08/09 06:49:44;;;;;;;8.63;4.40;;;;;;;;;;5071685;28;20032;-61
2022/08/09 06:52:11;;;;;;;9.98;4.75;;;;;;;;;;5071899;28;20036;-62
2022/08/09 06:54:37;;;;;;;10.93;3.60;;;;;;;;;;5071648;28;20557;-63
2022/08/09 06:57:03;;;;;;;11.70;3.60;;;;;;;;;;5071406;28;20047;-62
2022/08/09 06:59:29;;;;;;;10.55;3.72;;;;;;;;;;5053560;28;20151;-63
2022/08/09 07:01:55;;;;;;;11.55;4.18;;;;;;;;;;5071661;28;20104;-62
2022/08/09 07:04:21;;;;;;;11.77;3.20;;;;;;;;;;5071641;28;20021;-62
2022/08/09 07:06:47;;;;;;;6.85;3.25;;;;;;;;;;5071715;28;20036;-62
2022/08/09 07:09:14;;;;;;;8.27;3.85;;;;;;;;;;5071390;28;20163;-61
2022/08/09 07:11:40;;;;;;;6.85;3.45;;;;;;;;;;5071640;28;20035;-61
2022/08/09 07:14:06;;;;;;;15.35;4.07;;;;;;;;;;5053270;28;20024;-60
2022/08/09 07:16:32;;;;;;;10.75;3.42;;;;;;;;;;5071037;28;20032;-64
2022/08/09 07:18:58;;;;;;;10.88;3.50;;;;;;;;;;5071566;28;20048;-61
2022/08/09 07:21:25;;;;;;;7.22;3.03;;;;;;;;;;5071137;28;20025;-61
2022/08/09 07:23:51;;;;;;;11.10;3.58;;;;;;;;;;5069931;28;20402;-61
2022/08/09 07:26:17;;;;;;;8.70;3.47;;;;;;;;;;5071198;28;20537;-61
2022/08/09 07:28:43;;;;;;;9.27;4.00;;;;;;;;;;5071182;28;20046;-61
2022/08/09 07:31:10;;;;;;;8.68;3.42;;;;;;;;;;5053383;28;20033;-60
2022/08/09 07:33:36;;;;;;;11.00;3.72;;;;;;;;;;5053202;28;20056;-61
2022/08/09 07:36:02;;;;;;;11.98;3.67;;;;;;;;;;5071285;28;20029;-61
2022/08/09 07:38:28;;;;;;;14.98;3.72;;;;;;;;;;5071265;28;20055;-61
2022/08/09 07:40:54;;;;;;;7.32;3.38;;;;;;;;;;5075033;28;20051;-62
2022/08/09 07:43:20;;;;;;;7.53;3.30;;;;;;;;;;5074903;28;20017;-60
2022/08/09 07:45:46;;;;;;;12.85;3.35;;;;;;;;;;5075085;28;20059;-61
2022/08/09 07:48:12;;;;;;;18.55;4.45;;;;;;;;;;5074960;28;20554;-60
2022/08/09 07:50:39;;;;;;;11.65;4.25;;;;;;;;;;5075002;28;20410;-61
2022/08/09 07:53:06;;;;;;;12.25;3.60;;;;;;;;;;5074822;28;20398;-60
2022/08/09 07:55:33;;;;;;;13.52;3.53;;;;;;;;;;5074805;28;20590;-59
2022/08/09 07:57:59;;;;;;;6.85;3.30;;;;;;;;;;5074732;28;20097;-59
2022/08/09 08:00:26;;;;;;;11.52;4.20;;;;;;;;;;5074822;28;20039;-58
2022/08/09 08:02:52;;;;;;;;;;;;;;;;;;5056965;28;20021;-59
2022/08/09 08:05:18;;;;;;;8.20;3.20;;;;;;;;;;5057016;28;19904;-59
2022/08/09 08:07:44;;;;;;;11.40;3.05;;;;;;;;;;5074816;28;20025;-60
2022/08/09 08:10:10;;;;;;;9.20;3.08;;;;;;;;;;5074381;28;20024;-60
2022/08/09 08:12:37;;;;;;;5.50;3.20;;;;;;;;;;5074350;28;20025;-60
2022/08/09 08:15:04;;;;;;;12.18;4.30;;;;;;;;;;5074464;28;20029;-60
2022/08/09 08:17:30;;;;;;;10.65;3.50;;;;;;;;;;5074381;28;20061;-60
2022/08/09 08:19:56;;;;;;;11.30;3.42;;;;;;;;;;5074296;28;20390;-60
2022/08/09 08:22:22;;;;;;;6.43;3.60;;;;;;;;;;5074279;28;20029;-59
2022/08/09 08:24:54;;;;;;;10.30;3.38;;;;;;;;;;5074075;28;20059;-58
2022/08/09 08:27:20;;;;;;;11.13;3.88;;;;;;;;;;5074352;28;20017;-59
2022/08/09 08:29:46;;;;;;;4.15;3.30;;;;;;;;;;5074070;28;20554;-59
2022/08/09 08:32:12;;;;;;;11.43;3.33;;;;;;;;;;5074179;28;20028;-58
2022/08/09 08:34:38;;;;;;;4.63;3.35;;;;;;;;;;5074108;28;20032;-60
2022/08/09 08:37:05;;;;;;;7.25;3.47;;;;;;;;;;5074143;28;20055;-59
2022/08/09 08:39:31;;;;;;;9.23;3.67;;;;;;;;;;5073813;28;20538;-59
2022/08/09 08:41:57;;;;;;;13.25;3.47;;;;;;;;;;5073912;28;20482;-58
2022/08/09 08:44:23;;;;;;;11.20;3.45;;;;;;;;;;5073962;28;20050;-58
2022/08/09 08:46:49;;;;;;;5.30;3.38;;;;;;;;;;5055987;28;20024;-60
2022/08/09 08:49:16;;;;;;;9.52;3.33;;;;;;;;;;5073827;28;20398;-59
2022/08/09 08:51:42;;;;;;;9.27;3.50;;;;;;;;;;5073211;28;20032;-59
2022/08/09 08:54:10;;;;;;;13.07;4.65;;;;;;;;;;5073628;28;20024;-59
2022/08/09 08:56:37;;;;;;;5.82;3.03;;;;;;;;;;5073832;28;20398;-57
2022/08/09 08:59:11;;;;;;;11.23;4.20;;;;;;;;;;5073914;28;20021;-59
2022/08/09 09:01:39;;;;;;;9.02;3.63;;;;;;;;;;5073549;28;20036;-57
2022/08/09 09:04:08;;;;;;;10.93;4.20;;;;;;;;;;5055492;28;20403;-59
2022/08/09 09:06:35;;;;;;;7.07;3.35;;;;;;;;;;5073477;28;20020;-58
2022/08/09 09:09:03;;;;;;;8.18;3.90;;;;;;;;;;5073165;28;20383;-58
2022/08/09 09:11:30;;;;;;;5.07;3.90;;;;;;;;;;5073447;28;20033;-59
2022/08/09 09:13:57;;;;;;;7.03;4.00;;;;;;;;;;5073283;28;20436;-59
2022/08/09 09:16:30;;;;;;;5.40;3.75;;;;;;;;;;5073677;28;20398;-60
2022/08/09 09:18:57;;;;;;;6.03;4.05;;;;;;;;;;5073318;28;20047;-59
2022/08/09 09:21:23;;;;;;;8.40;3.92;;;;;;;;;;5073190;28;20092;-60
2022/08/09 09:23:49;;;;;;;7.60;3.30;;;;;;;;;;5055240;28;20048;-60
2022/08/09 09:26:15;;;;;;;9.95;3.72;;;;;;;;;;5073184;28;20020;-59
2022/08/09 09:28:45;;;;;;;10.88;4.22;;;;;;;;;;5073051;28;20414;-58
2022/08/09 09:31:18;;;;;;;16.83;5.00;;;;;;;;;;5073135;28;20027;-60
2022/08/09 09:33:44;;;;;;;13.50;4.47;;;;;;;;;;5072759;28;20036;-59
2022/08/09 09:36:12;;;;;;;6.85;3.85;;;;;;;;;;5072958;28;20052;-59
2022/08/09 09:38:41;;;;;;;7.65;4.28;;;;;;;;;;5072734;28;20012;-60
2022/08/09 09:41:08;;;;;;;7.05;4.30;;;;;;;;;;5073032;28;20025;-59
2022/08/09 09:43:34;;;;;;;6.75;3.70;;;;;;;;;;5072751;28;20150;-60
2022/08/09 09:46:04;;;;;;;9.45;4.35;;;;;;;;;;5072717;28;20100;-58
2022/08/09 09:48:30;;;;;;;17.08;3.50;;;;;;;;;;5072711;28;20012;-59
2022/08/09 09:50:56;;;;;;;10.15;4.38;;;;;;;;;;5073137;28;20028;-60
2022/08/09 09:53:24;;;;;;;7.93;3.55;;;;;;;;;;5072403;28;20525;-59
2022/08/09 09:55:58;;;;;;;6.43;3.60;;;;;;;;;;5072635;28;20044;-59
2022/08/09 09:58:25;;;;;;;9.70;3.70;;;;;;;;;;5072473;28;20020;-59
2022/08/09 10:00:52;;;;;;;5.85;3.58;;;;;;;;;;5054636;28;20066;-58
2022/08/09 10:03:18;;;;;;;7.00;3.97;;;;;;;;;;5071244;28;20487;-59
2022/08/09 10:05:57;;;;;;;10.40;4.55;;;;;;;;;;5072310;28;20036;-59
2022/08/09 10:08:23;;;;;;;6.38;3.58;;;;;;;;;;5072030;28;20082;-61
2022/08/09 10:10:50;;;;;;;6.57;3.25;;;;;;;;;;5072550;28;20017;-61
2022/08/09 10:13:17;;;;;;;7.15;4.60;;;;;;;;;;5072127;28;20028;-61
2022/08/09 10:15:50;;;;;;;9.75;4.90;;;;;;;;;;5072208;28;20029;-62
2022/08/09 10:18:17;;;;;;;16.80;4.65;;;;;;;;;;5072066;28;20566;-62
2022/08/09 10:20:43;;;;;;;;;;;;;;;;;;5072633;28;20034;-62
2022/08/09 10:23:14;;;;;;;13.15;4.90;;;;;;;;;;5071955;28;19909;-62
2022/08/09 10:25:41;;;;;;;6.25;4.10;;;;;;;;;;5072173;28;20589;-62
2022/08/09 10:28:07;;;;;;;12.38;5.55;;;;;;;;;;5071415;28;20073;-61
2022/08/09 10:30:33;;;;;;;9.77;3.75;;;;;;;;;;5071816;28;20056;-61
2022/08/09 10:32:59;;;;;;;10.73;4.15;;;;;;;;;;5072043;28;20419;-54
2022/08/09 10:35:25;;;;;;;14.50;5.22;;;;;;;;;;5072044;28;20035;-56
2022/08/09 10:37:51;;;;;;;5.47;3.80;;;;;;;;;;5071931;28;20090;-56
2022/08/09 10:40:17;;;;;;;10.63;4.18;;;;;;;;;;5071935;28;20129;-56
2022/08/09 10:42:43;;;;;;;9.02;4.13;;;;;;;;;;5071584;28;20025;-57
2022/08/09 10:45:10;;;;;;;6.07;3.67;;;;;;;;;;5071797;28;20029;-59
2022/08/09 10:47:39;;;;;;;10.55;3.95;;;;;;;;;;5071852;28;20027;-57
2022/08/09 10:50:16;;;;;;;4.68;3.95;;;;;;;;;;5075126;28;20056;-56
2022/08/09 10:53:03;;;;;;;7.72;4.35;;;;;;;;;;5072423;28;20370;-56
2022/08/09 10:55:29;;;;;;;6.85;4.63;;;;;;;;;;5073156;28;20032;-56
2022/08/09 10:57:56;;;;;;;15.70;5.25;;;;;;;;;;5087439;28;20038;-55
2022/08/09 11:00:28;;;;;;;11.32;4.13;;;;;;;;;;5085021;28;20028;-54
2022/08/09 11:02:55;;;;;;;6.68;3.90;;;;;;;;;;5091562;28;20025;-56
2022/08/09 11:05:21;;;;;;;;;;;;;;;;;;5075076;28;20029;-56
2022/08/09 11:07:47;;;;;;;10.43;3.80;;;;;;;;;;5075377;28;19941;-56
2022/08/09 11:10:13;;;;;;;6.40;3.15;;;;;;;;;;5095984;22;20421;-57
2022/08/09 11:12:39;;;;;;;9.73;6.13;;;;;;;;;;5069763;28;20029;-56
2022/08/09 11:15:18;;;;;;;14.43;4.88;;;;;;;;;;5076848;28;20082;-56
2022/08/09 11:17:45;;;;;;;95.90;85.28;;;;;;;;;;5076718;28;20078;-55
2022/08/09 11:20:12;;;;;;;23.15;20.00;;;;;;;;;;5060490;28;20557;-53
2022/08/09 11:22:41;;;;;;;7.13;4.25;;;;;;;;;;5054851;28;20025;-54
2022/08/09 11:25:07;;;;;;;8.75;4.00;;;;;;;;;;5057447;28;20025;-54
2022/08/09 11:27:35;;;;;;;10.57;4.28;;;;;;;;;;5057388;28;20501;-56
2022/08/09 11:30:01;;;;;;;7.85;4.10;;;;;;;;;;5058073;28;20029;-56
2022/08/09 11:32:49;;;;;;;6.20;3.67;;;;;;;;;;5039570;28;20032;-59
2022/08/09 11:35:18;;;;;;;5.72;3.67;;;;;;;;;;5056877;28;20037;-60
2022/08/09 11:37:45;;;;;;;10.52;4.13;;;;;;;;;;5055123;28;20044;-59
2022/08/09 11:40:13;;;;;;;5.03;3.30;;;;;;;;;;5057099;28;20021;-60
2022/08/09 11:42:47;;;;;;;7.03;3.38;;;;;;;;;;5057500;28;20433;-60
2022/08/09 11:45:20;;;;;;;6.30;3.58;;;;;;;;;;5039666;28;20498;-59
2022/08/09 11:47:51;;;;;;;7.32;3.90;;;;;;;;;;5057793;28;20036;-60
2022/08/09 11:50:17;;;;;;;11.20;4.15;;;;;;;;;;5057306;28;20024;-59
2022/08/09 11:52:58;;;;;;;10.05;4.35;;;;;;;;;;5052090;28;20040;-60
2022/08/09 11:55:34;;;;;;;6.03;3.17;;;;;;;;;;5039862;28;20029;-60
2022/08/09 11:58:01;;;;;;;9.77;3.90;;;;;;;;;;5039432;28;20483;-60
2022/08/09 12:00:29;;;;;;;6.97;4.05;;;;;;;;;;5057105;28;20656;-60
2022/08/09 12:02:56;;;;;;;13.48;4.05;;;;;;;;;;5057391;28;20037;-59
2022/08/09 12:05:29;;;;;;;8.70;3.83;;;;;;;;;;5057309;28;20017;-60
2022/08/09 12:07:55;;;;;;;10.38;3.83;;;;;;;;;;5057488;28;20044;-59
2022/08/09 12:10:23;;;;;;;5.97;4.13;;;;;;;;;;5039363;28;20028;-60
2022/08/09 12:12:50;;;;;;;11.90;4.30;;;;;;;;;;5057030;28;20029;-60
2022/08/09 12:15:23;;;;;;;9.02;3.80;;;;;;;;;;5057727;28;20041;-60
2022/08/09 12:17:49;;;;;;;7.45;4.43;;;;;;;;;;5057150;28;20035;-60
2022/08/09 12:20:19;;;;;;;10.63;4.00;;;;;;;;;;5056627;28;20037;-60
2022/08/09 12:22:47;;;;;;;4.55;3.40;;;;;;;;;;5057188;28;20024;-59
2022/08/09 12:25:14;;;;;;;8.65;3.78;;;;;;;;;;5038102;28;20031;-60
2022/08/09 12:27:40;;;;;;;6.22;3.78;;;;;;;;;;5054205;28;20025;-59
2022/08/09 12:30:06;;;;;;;8.02;3.40;;;;;;;;;;5036421;28;20037;-60
2022/08/09 12:32:35;;;;;;;8.75;3.90;;;;;;;;;;5036241;28;20045;-60
2022/08/09 12:35:04;;;;;;;6.20;3.97;;;;;;;;;;5054164;28;20369;-59
2022/08/09 12:37:34;;;;;;;10.63;4.07;;;;;;;;;;5054010;28;20064;-60
2022/08/09 12:40:05;;;;;;;4.60;3.53;;;;;;;;;;5053863;28;20064;-60
2022/08/09 12:42:33;;;;;;;8.18;3.95;;;;;;;;;;5054048;28;20056;-60
2022/08/09 12:44:59;;;;;;;5.30;3.63;;;;;;;;;;5053598;28;20475;-60
2022/08/09 12:47:25;;;;;;;;;;;;;;;;;;5036708;28;20055;-60
2022/08/09 12:52:42;;;;;;;8.18;3.88;;;;;;;;;;5054020;28;20386;-59
2022/08/09 12:55:09;;;;;;;6.53;3.38;;;;;;;;;;5052949;28;20028;-58
2022/08/09 12:57:46;;;;;;;7.95;3.80;;;;;;;;;;5053641;28;20029;-60
2022/08/09 13:00:15;;;;;;;4.15;3.75;;;;;;;;;;5053427;28;20029;-60
2022/08/09 13:02:55;;;;;;;11.40;4.13;;;;;;;;;;5053410;28;20494;-59
2022/08/09 13:05:23;;;;;;;7.78;3.72;;;;;;;;;;5053255;28;20375;-59
2022/08/09 13:08:07;;;;;;;4.55;3.42;;;;;;;;;;5053261;28;20029;-60
2022/08/09 13:11:03;;;;;;;6.57;3.42;;;;;;;;;;5053624;28;20124;-60
2022/08/09 13:13:34;;;;;;;8.73;3.70;;;;;;;;;;5022887;28;20069;-60
2022/08/09 13:16:01;;;;;;;10.77;3.47;;;;;;;;;;5036177;28;20572;-60
2022/08/09 13:18:29;;;;;;;5.88;3.55;;;;;;;;;;5052918;28;20033;-60
2022/08/09 13:20:56;;;;;;;5.75;3.65;;;;;;;;;;5053409;28;20104;-60
2022/08/09 13:23:39;;;;;;;8.55;5.28;;;;;;;;;;5051143;28;20029;-61
2022/08/09 13:26:05;;;;;;;6.97;4.90;;;;;;;;;;5050337;28;20016;-60
2022/08/09 13:28:32;;;;;;;4.90;3.90;;;;;;;;;;5052853;28;20027;-61
2022/08/09 13:30:57;;;;;;;;;;;;;;;;;;5053433;28;20449;-59
2022/08/09 13:33:24;;;;;;;6.15;3.53;;;;;;;;;;5052963;28;19916;-60
2022/08/09 13:35:50;;;;;;;5.55;3.55;;;;;;;;;;5052870;28;20035;-60
2022/08/09 13:38:16;;;;;;;6.78;3.60;;;;;;;;;;5052612;28;20036;-60
2022/08/09 13:40:42;;;;;;;8.23;3.50;;;;;;;;;;5053042;28;20112;-60
2022/08/09 13:43:08;;;;;;;5.70;3.65;;;;;;;;;;5052918;28;20028;-60
2022/08/09 13:45:34;;;;;;;5.43;3.22;;;;;;;;;;5051947;28;20025;-58
2022/08/09 13:48:00;;;;;;;9.52;3.03;;;;;;;;;;5052382;28;20056;-59
2022/08/09 13:50:26;;;;;;;3.83;3.35;;;;;;;;;;5058224;28;20020;-58
2022/08/09 13:52:52;;;;;;;4.20;3.03;;;;;;;;;;5052643;28;20044;-60
2022/08/09 13:55:18;;;;;;;4.15;2.90;;;27.60;56.80;;;;;;5042851;28;20037;-56
2022/08/09 13:57:46;;;;;;;3.35;2.97;;;45.70;28.50;;;;;;5029157;28;20143;-57
2022/08/09 14:00:14;;;;;;;3.35;3.03;;;45.60;27.60;;;;;;5051593;28;20028;-57
2022/08/09 14:02:46;;;;;;;9.85;3.33;;;45.90;27.30;;;;;;5051808;28;20021;-57
2022/08/09 14:05:12;;;;;;;5.60;3.40;;;46.30;27.70;;;;;;5052386;28;20032;-56
2022/08/09 14:07:38;;;;;;;5.50;2.63;;;46.90;27.40;;;;;;5051630;28;20128;-57
2022/08/09 14:10:05;;;;;;;6.57;3.28;;;47.40;27.00;;;;;;5051266;28;20545;-57
2022/08/09 14:12:31;;;;;;;3.72;2.90;;;47.70;26.70;;;;;;5052309;28;20391;-56
2022/08/09 14:14:57;;;;;;;4.57;3.33;;;47.90;26.50;;;;;;5052402;28;20033;-56
2022/08/09 14:17:22;;;;;;;2.83;2.63;;;48.20;26.20;;;;;;5052301;28;20036;-57
2022/08/09 14:19:48;;;;;;;8.65;3.15;;;47.90;26.00;;;;;;5052092;28;20102;-57
2022/08/09 14:22:14;;;;;;;7.45;3.60;;;48.10;26.20;;;;;;5052152;28;20064;-56
2022/08/09 14:24:42;;;;;;;3.78;2.97;;;48.80;25.90;;;;;;5052352;28;20025;-57
2022/08/09 14:27:08;;;;;;;4.80;2.80;;;48.30;25.50;;;;;;5051974;28;20021;-57
2022/08/09 14:29:34;;;;;;;4.22;2.88;;;48.60;25.40;;;;;;5051564;28;20029;-57
2022/08/09 14:31:59;;;;;;;4.25;2.97;;;48.90;25.10;;;;;;5052013;28;20038;-57
2022/08/09 14:34:27;;;;;;;6.43;3.50;;;49.10;24.90;;;;;;5051855;28;20061;-57
2022/08/09 14:36:52;;;;;;;7.25;2.75;;;49.70;25.10;;;;;;5052094;28;20025;-57